createdAt,value
2019-05-02T00:00:14.370Z,11.10
2019-05-02T00:01:38.240Z,11.10
2019-05-02T00:02:42.389Z,11.10
2019-05-02T00:03:46.201Z,11.10
2019-05-02T00:04:50.966Z,11.10
2019-05-02T00:05:55.099Z,11.10
2019-05-02T00:07:06.375Z,11.10
2019-05-02T00:08:10.505Z,11.20
2019-05-02T00:09:14.514Z,11.20
2019-05-02T00:10:19.993Z,11.20
2019-05-02T00:11:24.510Z,11.20
2019-05-02T00:12:28.362Z,11.20
2019-05-02T00:13:31.942Z,11.20
2019-05-02T00:14:36.243Z,11.10
2019-05-02T00:15:39.847Z,11.10
2019-05-02T00:16:45.041Z,11.10
2019-05-02T00:17:49.126Z,11.10
2019-05-02T00:18:52.650Z,11.10
2019-05-02T00:19:56.234Z,11.10
2019-05-02T00:21:01.324Z,11.10
2019-05-02T00:22:06.654Z,11.10
2019-05-02T00:23:10.217Z,11.10
2019-05-02T00:24:13.789Z,11.10
2019-05-02T00:25:17.395Z,11.10
2019-05-02T00:26:24.581Z,11.10
2019-05-02T00:27:26.256Z,11.10
2019-05-02T00:28:29.898Z,11.10
2019-05-02T00:29:33.529Z,11.10
2019-05-02T00:30:37.139Z,11.10
2019-05-02T00:31:41.955Z,11.10
2019-05-02T00:32:45.933Z,11.10
2019-05-02T00:33:49.612Z,11.10
2019-05-02T00:34:53.179Z,11.10
2019-05-02T00:35:56.775Z,11.10
2019-05-02T00:37:00.426Z,11.10
2019-05-02T00:38:04.096Z,11.10
2019-05-02T00:39:09.564Z,11.00
2019-05-02T00:40:13.694Z,11.00
2019-05-02T00:41:17.258Z,11.00
2019-05-02T00:42:22.512Z,11.00
2019-05-02T00:43:29.067Z,10.90
2019-05-02T00:44:31.251Z,10.90
2019-05-02T00:45:34.864Z,10.90
2019-05-02T00:46:38.430Z,10.90
2019-05-02T00:47:47.761Z,11.00
2019-05-02T00:48:58.980Z,11.00
2019-05-02T00:49:58.650Z,11.00
2019-05-02T00:51:02.226Z,11.00
2019-05-02T00:52:05.963Z,11.00
2019-05-02T00:53:12.141Z,11.00
2019-05-02T00:54:19.300Z,10.90
2019-05-02T00:55:20.081Z,10.90
2019-05-02T00:56:23.640Z,10.90
2019-05-02T00:57:27.208Z,10.90
2019-05-02T00:58:31.889Z,10.90
2019-05-02T00:59:37.828Z,10.90
2019-05-02T01:00:42.973Z,10.90
2019-05-02T01:01:50.879Z,10.90
2019-05-02T01:02:59.044Z,10.90
2019-05-02T01:04:23.323Z,10.80
2019-05-02T01:05:24.882Z,10.80
2019-05-02T01:06:28.457Z,10.70
2019-05-02T01:07:32.034Z,10.70
2019-05-02T01:08:36.844Z,10.60
2019-05-02T01:09:42.137Z,10.60
2019-05-02T01:10:45.785Z,10.60
2019-05-02T01:11:49.430Z,10.50
2019-05-02T01:12:52.995Z,10.50
2019-05-02T01:13:57.716Z,10.50
2019-05-02T01:15:03.230Z,10.40
2019-05-02T01:16:06.779Z,10.30
2019-05-02T01:17:10.350Z,10.40
2019-05-02T01:18:13.922Z,10.30
2019-05-02T01:19:17.590Z,10.30
2019-05-02T01:20:22.327Z,10.30
2019-05-02T01:21:26.456Z,10.30
2019-05-02T01:22:30.089Z,10.30
2019-05-02T01:23:33.668Z,10.30
2019-05-02T01:24:39.913Z,10.30
2019-05-02T01:25:42.471Z,10.20
2019-05-02T01:26:53.698Z,10.20
2019-05-02T01:28:17.953Z,10.20
2019-05-02T01:29:24.882Z,10.20
2019-05-02T01:30:47.095Z,10.20
2019-05-02T01:31:58.083Z,10.10
2019-05-02T01:33:06.522Z,10.10
2019-05-02T01:34:17.964Z,10.10
2019-05-02T01:35:31.611Z,10.00
2019-05-02T01:36:44.889Z,10.00
2019-05-02T01:38:06.390Z,10.00
2019-05-02T01:39:11.634Z,10.00
2019-05-02T01:40:17.782Z,10.00
2019-05-02T01:41:24.031Z,10.10
2019-05-02T01:42:38.733Z,10.10
2019-05-02T01:43:32.023Z,10.10
2019-05-02T01:44:36.566Z,10.10
2019-05-02T01:46:45.566Z,10.20
2019-05-02T01:47:49.168Z,10.20
2019-05-02T01:48:52.788Z,10.20
2019-05-02T01:49:57.232Z,10.20
2019-05-02T01:51:04.336Z,10.20
2019-05-02T01:52:06.777Z,10.20
2019-05-02T01:53:10.346Z,10.10
2019-05-02T01:54:13.974Z,10.10
2019-05-02T01:55:21.266Z,10.20
2019-05-02T01:56:22.767Z,10.20
2019-05-02T01:57:26.335Z,10.20
2019-05-02T01:58:29.897Z,10.20
2019-05-02T01:59:33.839Z,10.10
2019-05-02T02:00:40.831Z,10.20
2019-05-02T02:01:44.054Z,10.10
2019-05-02T02:02:47.617Z,10.00
2019-05-02T02:03:51.266Z,10.00
2019-05-02T02:04:56.891Z,10.00
2019-05-02T02:06:02.844Z,10.00
2019-05-02T02:07:05.634Z,10.00
2019-05-02T02:08:09.275Z,10.00
2019-05-02T02:09:12.909Z,10.00
2019-05-02T02:11:21.442Z,10.00
2019-05-02T02:12:25.011Z,10.00
2019-05-02T02:13:31.202Z,10.00
2019-05-02T02:14:33.798Z,10.00
2019-05-02T02:15:37.407Z,10.00
2019-05-02T02:16:41.115Z,10.00
2019-05-02T02:17:46.794Z,10.00
2019-05-02T02:18:51.568Z,10.00
2019-05-02T02:19:59.713Z,10.00
2019-05-02T02:21:07.723Z,10.00
2019-05-02T02:22:19.253Z,10.00
2019-05-02T02:23:45.058Z,10.00
2019-05-02T02:24:49.990Z,10.00
2019-05-02T02:25:55.204Z,10.00
2019-05-02T02:26:58.773Z,10.00
2019-05-02T02:28:02.410Z,10.00
2019-05-02T02:29:07.898Z,10.00
2019-05-02T02:30:17.762Z,9.90
2019-05-02T02:31:20.437Z,9.90
2019-05-02T02:32:27.114Z,9.90
2019-05-02T02:33:29.286Z,9.90
2019-05-02T02:34:32.859Z,9.90
2019-05-02T02:35:36.428Z,9.90
2019-05-02T02:36:39.987Z,9.90
2019-05-02T02:37:51.984Z,9.90
2019-05-02T02:38:48.843Z,9.90
2019-05-02T02:39:54.264Z,9.80
2019-05-02T02:40:57.620Z,9.80
2019-05-02T02:42:01.172Z,9.90
2019-05-02T02:43:30.342Z,9.80
2019-05-02T02:44:17.489Z,9.80
2019-05-02T02:45:57.804Z,9.80
2019-05-02T02:47:01.940Z,9.90
2019-05-02T02:48:05.574Z,9.90
2019-05-02T02:49:14.205Z,10.00
2019-05-02T02:50:14.459Z,10.00
2019-05-02T02:51:23.825Z,10.10
2019-05-02T02:52:23.341Z,10.20
2019-05-02T02:53:29.982Z,10.20
2019-05-02T02:54:36.764Z,10.20
2019-05-02T02:55:38.768Z,10.20
2019-05-02T02:56:42.709Z,10.30
2019-05-02T02:57:46.417Z,10.30
2019-05-02T02:58:49.984Z,10.30
2019-05-02T02:59:59.634Z,10.30
2019-05-02T03:00:59.043Z,10.30
2019-05-02T03:02:10.196Z,10.30
2019-05-02T03:03:07.837Z,10.30
2019-05-02T03:04:12.247Z,10.30
2019-05-02T03:05:18.510Z,10.30
2019-05-02T03:06:21.327Z,10.30
2019-05-02T03:07:26.459Z,10.30
2019-05-02T03:08:30.134Z,10.20
2019-05-02T03:09:33.706Z,10.20
2019-05-02T03:10:39.891Z,10.10
2019-05-02T03:11:44.109Z,10.00
2019-05-02T03:12:52.228Z,9.90
2019-05-02T03:14:06.883Z,9.90
2019-05-02T03:15:10.407Z,9.90
2019-05-02T03:16:18.316Z,9.90
2019-05-02T03:17:26.588Z,9.90
2019-05-02T03:18:27.333Z,9.90
2019-05-02T03:19:30.931Z,9.90
2019-05-02T03:20:39.901Z,9.80
2019-05-02T03:21:41.338Z,9.80
2019-05-02T03:22:44.908Z,9.80
2019-05-02T03:23:48.572Z,9.80
2019-05-02T03:24:52.129Z,9.80
2019-05-02T03:25:55.689Z,9.80
2019-05-02T03:26:59.260Z,9.80
2019-05-02T03:28:03.023Z,9.90
2019-05-02T03:29:06.579Z,9.90
2019-05-02T03:30:29.171Z,9.90
2019-05-02T03:31:28.104Z,9.90
2019-05-02T03:32:31.571Z,9.90
2019-05-02T03:33:26.281Z,10.00
2019-05-02T03:34:44.980Z,10.00
2019-05-02T03:35:42.568Z,10.00
2019-05-02T03:36:40.623Z,9.90
2019-05-02T03:37:44.656Z,9.90
2019-05-02T03:38:49.480Z,9.90
2019-05-02T03:39:57.191Z,9.90
2019-05-02T03:40:58.254Z,10.00
2019-05-02T03:42:04.857Z,10.00
2019-05-02T03:43:07.491Z,10.00
2019-05-02T03:44:18.166Z,9.90
2019-05-02T03:45:16.705Z,9.90
2019-05-02T03:46:22.513Z,9.90
2019-05-02T03:47:26.194Z,10.00
2019-05-02T03:48:29.879Z,10.00
2019-05-02T03:49:33.479Z,10.10
2019-05-02T03:50:37.047Z,10.10
2019-05-02T03:51:40.688Z,10.10
2019-05-02T03:52:46.557Z,10.10
2019-05-02T03:53:49.732Z,10.00
2019-05-02T03:54:53.333Z,10.00
2019-05-02T03:55:57.359Z,10.00
2019-05-02T03:57:00.939Z,10.00
2019-05-02T03:58:12.826Z,10.10
2019-05-02T03:59:10.147Z,10.10
2019-05-02T04:00:21.247Z,10.00
2019-05-02T04:01:19.916Z,10.00
2019-05-02T04:02:24.217Z,10.10
2019-05-02T04:03:33.994Z,10.10
2019-05-02T04:04:34.648Z,10.20
2019-05-02T04:05:40.336Z,10.30
2019-05-02T04:06:43.607Z,10.30
2019-05-02T04:07:47.742Z,10.30
2019-05-02T04:08:59.142Z,10.30
2019-05-02T04:09:57.943Z,10.30
2019-05-02T04:11:16.438Z,10.40
2019-05-02T04:12:21.882Z,10.40
2019-05-02T04:13:30.121Z,10.40
2019-05-02T04:14:38.120Z,10.50
2019-05-02T04:15:37.522Z,10.50
2019-05-02T04:16:41.338Z,10.50
2019-05-02T04:17:45.271Z,10.50
2019-05-02T04:18:55.105Z,10.50
2019-05-02T04:19:54.406Z,10.50
2019-05-02T04:20:59.048Z,10.50
2019-05-02T04:22:08.405Z,10.40
2019-05-02T04:23:08.617Z,10.40
2019-05-02T04:24:15.760Z,10.50
2019-05-02T04:25:18.610Z,10.50
2019-05-02T04:26:22.450Z,10.40
2019-05-02T04:27:27.933Z,10.40
2019-05-02T04:28:31.927Z,10.50
2019-05-02T04:29:36.545Z,10.50
2019-05-02T04:30:45.218Z,10.50
2019-05-02T04:31:45.366Z,10.50
2019-05-02T04:32:49.722Z,10.50
2019-05-02T04:33:54.188Z,10.60
2019-05-02T04:34:58.096Z,10.50
2019-05-02T04:36:14.174Z,10.60
2019-05-02T04:37:07.077Z,10.50
2019-05-02T04:38:20.378Z,10.50
2019-05-02T04:39:20.721Z,10.30
2019-05-02T04:40:21.097Z,10.30
2019-05-02T04:41:28.966Z,10.30
2019-05-02T04:42:29.924Z,10.30
2019-05-02T04:43:33.486Z,10.40
2019-05-02T04:44:59.824Z,10.30
2019-05-02T04:45:53.160Z,10.30
2019-05-02T04:46:48.896Z,10.40
2019-05-02T04:47:59.010Z,10.40
2019-05-02T04:48:58.927Z,10.40
2019-05-02T04:50:07.631Z,10.40
2019-05-02T04:51:16.074Z,10.50
2019-05-02T04:52:16.869Z,10.50
2019-05-02T04:53:18.931Z,10.50
2019-05-02T04:54:28.285Z,10.50
2019-05-02T04:55:32.348Z,10.40
2019-05-02T04:56:33.100Z,10.30
2019-05-02T04:57:46.257Z,10.40
2019-05-02T04:58:41.870Z,10.40
2019-05-02T04:59:50.087Z,10.40
2019-05-02T05:00:58.130Z,10.40
2019-05-02T05:01:58.587Z,10.40
2019-05-02T05:03:01.238Z,10.40
2019-05-02T05:04:04.871Z,10.30
2019-05-02T05:05:08.573Z,10.30
2019-05-02T05:06:12.603Z,10.40
2019-05-02T05:07:17.771Z,10.40
2019-05-02T05:08:26.200Z,10.40
2019-05-02T05:09:27.900Z,10.40
2019-05-02T05:10:39.955Z,10.40
2019-05-02T05:11:38.140Z,10.40
2019-05-02T05:12:42.046Z,10.50
2019-05-02T05:13:47.759Z,10.50
2019-05-02T05:14:50.886Z,10.50
2019-05-02T05:15:54.453Z,10.50
2019-05-02T05:16:58.145Z,10.60
2019-05-02T05:18:04.597Z,10.60
2019-05-02T05:19:07.650Z,10.60
2019-05-02T05:20:15.537Z,10.60
2019-05-02T05:21:17.811Z,10.50
2019-05-02T05:22:21.883Z,10.50
2019-05-02T05:23:28.006Z,10.50
2019-05-02T05:24:49.840Z,10.50
2019-05-02T05:25:55.666Z,10.50
2019-05-02T05:27:00.288Z,10.30
2019-05-02T05:28:06.070Z,10.30
2019-05-02T05:29:09.071Z,10.20
2019-05-02T05:30:15.907Z,10.30
2019-05-02T05:31:23.964Z,10.30
2019-05-02T05:32:23.153Z,10.30
2019-05-02T05:33:28.336Z,10.30
2019-05-02T05:34:32.725Z,10.30
2019-05-02T05:35:38.422Z,10.40
2019-05-02T05:36:41.759Z,10.30
2019-05-02T05:37:49.111Z,10.40
2019-05-02T05:38:50.583Z,10.30
2019-05-02T05:39:54.186Z,10.30
2019-05-02T05:40:58.121Z,10.40
2019-05-02T05:42:01.837Z,10.40
2019-05-02T05:43:13.697Z,10.40
2019-05-02T05:44:10.611Z,10.30
2019-05-02T05:45:14.249Z,10.40
2019-05-02T05:46:18.023Z,10.40
2019-05-02T05:47:21.617Z,10.40
2019-05-02T05:48:27.239Z,10.40
2019-05-02T05:49:30.402Z,10.40
2019-05-02T05:50:39.790Z,10.40
2019-05-02T05:51:39.233Z,10.40
2019-05-02T05:52:42.810Z,10.30
2019-05-02T05:53:47.845Z,10.40
2019-05-02T05:54:51.601Z,10.30
2019-05-02T05:55:58.950Z,10.30
2019-05-02T05:57:00.887Z,10.20
2019-05-02T05:58:12.341Z,10.10
2019-05-02T05:59:09.745Z,10.10
2019-05-02T06:00:18.666Z,10.00
2019-05-02T06:01:20.407Z,10.00
2019-05-02T06:02:24.081Z,9.90
2019-05-02T06:03:27.874Z,9.90
2019-05-02T06:04:33.289Z,10.00
2019-05-02T06:05:38.542Z,9.90
2019-05-02T06:06:42.678Z,10.00
2019-05-02T06:07:47.444Z,10.10
2019-05-02T06:08:54.109Z,10.10
2019-05-02T06:09:56.283Z,10.20
2019-05-02T06:10:59.859Z,10.30
2019-05-02T06:12:03.473Z,10.40
2019-05-02T06:13:10.833Z,10.40
2019-05-02T06:14:12.268Z,10.40
2019-05-02T06:15:15.835Z,10.50
2019-05-02T06:16:19.401Z,10.50
2019-05-02T06:17:27.896Z,10.50
2019-05-02T06:18:28.508Z,10.40
2019-05-02T06:19:32.122Z,10.40
2019-05-02T06:20:35.694Z,10.40
2019-05-02T06:21:39.983Z,10.40
2019-05-02T06:22:44.513Z,10.30
2019-05-02T06:23:48.107Z,10.20
2019-05-02T06:24:52.185Z,10.20
2019-05-02T06:25:55.755Z,10.10
2019-05-02T06:26:59.327Z,10.10
2019-05-02T06:28:05.191Z,10.20
2019-05-02T06:29:12.918Z,10.20
2019-05-02T06:30:15.250Z,10.20
2019-05-02T06:31:18.812Z,10.20
2019-05-02T06:32:22.379Z,10.30
2019-05-02T06:33:30.431Z,10.30
2019-05-02T06:34:31.217Z,10.30
2019-05-02T06:35:34.790Z,10.30
2019-05-02T06:36:38.359Z,10.30
2019-05-02T06:37:45.361Z,10.30
2019-05-02T06:38:47.185Z,10.30
2019-05-02T06:39:50.811Z,10.30
2019-05-02T06:40:54.382Z,10.40
2019-05-02T06:41:58.703Z,10.40
2019-05-02T06:43:04.183Z,10.40
2019-05-02T06:44:10.252Z,10.40
2019-05-02T06:45:13.223Z,10.40
2019-05-02T06:46:21.875Z,10.40
2019-05-02T06:47:22.046Z,10.40
2019-05-02T06:48:25.613Z,10.40
2019-05-02T06:49:29.181Z,10.30
2019-05-02T06:50:38.656Z,10.30
2019-05-02T06:51:38.909Z,10.40
2019-05-02T06:52:42.661Z,10.40
2019-05-02T06:53:46.953Z,10.40
2019-05-02T06:54:54.086Z,10.40
2019-05-02T06:55:56.658Z,10.50
2019-05-02T06:57:00.301Z,10.60
2019-05-02T06:58:07.972Z,10.70
2019-05-02T06:59:13.035Z,10.70
2019-05-02T07:00:14.845Z,10.70
2019-05-02T07:01:21.120Z,10.80
2019-05-02T07:02:28.075Z,10.90
2019-05-02T07:03:28.884Z,10.90
2019-05-02T07:04:32.450Z,10.90
2019-05-02T07:05:36.049Z,10.90
2019-05-02T07:06:56.065Z,11.00
2019-05-02T07:07:45.074Z,11.00
2019-05-02T07:08:48.687Z,11.00
2019-05-02T07:09:52.516Z,11.10
2019-05-02T07:11:01.414Z,11.10
2019-05-02T07:12:01.825Z,11.20
2019-05-02T07:13:10.886Z,11.10
2019-05-02T07:14:13.425Z,11.10
2019-05-02T07:15:33.459Z,11.10
2019-05-02T07:16:39.998Z,11.10
2019-05-02T07:17:45.197Z,11.00
2019-05-02T07:18:50.401Z,11.00
2019-05-02T07:20:03.806Z,11.00
2019-05-02T07:21:12.203Z,10.90
2019-05-02T07:22:13.067Z,10.90
2019-05-02T07:23:18.396Z,10.90
2019-05-02T07:24:25.303Z,10.90
2019-05-02T07:25:27.563Z,10.80
2019-05-02T07:26:31.198Z,10.80
2019-05-02T07:27:35.628Z,10.80
2019-05-02T07:28:40.308Z,10.70
2019-05-02T07:29:44.471Z,10.60
2019-05-02T07:30:48.074Z,10.50
2019-05-02T07:31:53.516Z,10.50
2019-05-02T07:33:01.191Z,10.50
2019-05-02T07:34:02.090Z,10.50
2019-05-02T07:35:06.529Z,10.60
2019-05-02T07:36:10.097Z,10.50
2019-05-02T07:37:14.043Z,10.50
2019-05-02T07:38:20.128Z,10.50
2019-05-02T07:39:22.993Z,10.50
2019-05-02T07:40:26.563Z,10.50
2019-05-02T07:41:30.327Z,10.50
2019-05-02T07:42:36.832Z,10.60
2019-05-02T07:43:39.114Z,10.60
2019-05-02T07:44:42.720Z,10.60
2019-05-02T07:45:46.579Z,10.60
2019-05-02T07:46:52.121Z,10.60
2019-05-02T07:47:55.442Z,10.60
2019-05-02T07:48:59.055Z,10.60
2019-05-02T07:50:05.260Z,10.50
2019-05-02T07:51:07.833Z,10.60
2019-05-02T07:52:11.403Z,10.60
2019-05-02T07:53:15.005Z,10.70
2019-05-02T07:54:19.297Z,10.70
2019-05-02T07:55:23.842Z,10.60
2019-05-02T07:56:27.463Z,10.60
2019-05-02T07:57:32.419Z,10.50
2019-05-02T07:58:37.980Z,10.50
2019-05-02T07:59:41.215Z,10.50
2019-05-02T08:00:44.817Z,10.50
2019-05-02T08:01:49.697Z,10.60
2019-05-02T08:02:58.044Z,10.60
2019-05-02T08:04:04.264Z,10.70
2019-05-02T08:05:05.194Z,10.70
2019-05-02T08:06:08.808Z,10.80
2019-05-02T08:07:16.274Z,10.80
2019-05-02T08:08:17.582Z,10.90
2019-05-02T08:09:21.222Z,10.90
2019-05-02T08:10:24.834Z,10.90
2019-05-02T08:11:32.200Z,10.90
2019-05-02T08:12:34.162Z,10.90
2019-05-02T08:13:37.725Z,10.80
2019-05-02T08:14:41.294Z,10.90
2019-05-02T08:15:45.555Z,10.90
2019-05-02T08:16:50.114Z,10.80
2019-05-02T08:17:55.064Z,10.90
2019-05-02T08:19:01.426Z,11.00
2019-05-02T08:20:08.689Z,11.10
2019-05-02T08:21:12.394Z,11.10
2019-05-02T08:22:15.959Z,11.10
2019-05-02T08:23:20.529Z,11.20
2019-05-02T08:24:24.737Z,11.20
2019-05-02T08:25:28.311Z,11.20
2019-05-02T08:26:53.380Z,11.20
2019-05-02T08:27:56.719Z,11.20
2019-05-02T08:29:01.923Z,11.20
2019-05-02T08:30:09.008Z,11.20
2019-05-02T08:31:13.585Z,11.10
2019-05-02T08:32:17.842Z,11.10
2019-05-02T08:33:21.686Z,11.10
2019-05-02T08:34:34.254Z,11.10
2019-05-02T08:35:37.804Z,11.00
2019-05-02T08:36:41.386Z,11.00
2019-05-02T08:37:44.994Z,11.00
2019-05-02T08:38:48.898Z,11.00
2019-05-02T08:39:53.850Z,11.10
2019-05-02T08:40:57.414Z,11.00
2019-05-02T08:42:00.974Z,11.10
2019-05-02T08:43:09.431Z,11.00
2019-05-02T08:44:10.207Z,11.00
2019-05-02T08:45:14.205Z,11.10
2019-05-02T08:46:17.774Z,11.10
2019-05-02T08:47:23.744Z,11.10
2019-05-02T08:48:26.604Z,11.10
2019-05-02T08:49:30.172Z,11.00
2019-05-02T08:50:33.773Z,11.00
2019-05-02T08:51:37.306Z,11.00
2019-05-02T08:52:42.249Z,11.10
2019-05-02T08:53:46.182Z,11.10
2019-05-02T08:54:49.748Z,11.20
2019-05-02T08:55:53.334Z,11.30
2019-05-02T08:56:59.025Z,11.40
2019-05-02T08:58:06.743Z,11.50
2019-05-02T08:59:07.430Z,11.40
2019-05-02T09:00:12.814Z,11.40
2019-05-02T09:01:16.380Z,11.40
2019-05-02T09:02:21.077Z,11.40
2019-05-02T09:03:25.194Z,11.30
2019-05-02T09:04:30.405Z,11.30
2019-05-02T09:05:36.933Z,11.30
2019-05-02T09:06:39.232Z,11.30
2019-05-02T09:07:43.318Z,11.30
2019-05-02T09:08:51.523Z,11.30
2019-05-02T09:09:55.290Z,11.40
2019-05-02T09:10:57.505Z,11.50
2019-05-02T09:12:09.753Z,11.50
2019-05-02T09:13:06.355Z,11.60
2019-05-02T09:14:12.341Z,11.70
2019-05-02T09:15:15.578Z,11.70
2019-05-02T09:16:21.551Z,11.80
2019-05-02T09:17:35.459Z,11.80
2019-05-02T09:18:35.255Z,11.70
2019-05-02T09:19:35.021Z,11.80
2019-05-02T09:20:38.639Z,11.80
2019-05-02T09:21:42.943Z,11.80
2019-05-02T09:22:51.483Z,11.80
2019-05-02T09:23:51.897Z,11.80
2019-05-02T09:24:55.494Z,11.80
2019-05-02T09:25:59.067Z,11.80
2019-05-02T09:27:02.634Z,11.80
2019-05-02T09:28:06.366Z,11.90
2019-05-02T09:29:09.929Z,11.80
2019-05-02T09:30:17.047Z,11.90
2019-05-02T09:31:19.371Z,11.90
2019-05-02T09:32:26.243Z,12.00
2019-05-02T09:33:28.154Z,12.00
2019-05-02T09:34:31.958Z,12.00
2019-05-02T09:35:35.685Z,12.10
2019-05-02T09:36:39.207Z,12.20
2019-05-02T09:37:42.775Z,12.20
2019-05-02T09:38:48.762Z,12.30
2019-05-02T09:39:52.483Z,12.40
2019-05-02T09:40:56.381Z,12.30
2019-05-02T09:42:02.029Z,12.30
2019-05-02T09:43:05.414Z,12.40
2019-05-02T09:44:13.285Z,12.40
2019-05-02T09:45:16.307Z,12.30
2019-05-02T09:46:21.675Z,12.40
2019-05-02T09:47:27.283Z,12.40
2019-05-02T09:48:31.924Z,12.40
2019-05-02T09:49:35.585Z,12.50
2019-05-02T09:50:39.199Z,12.50
2019-05-02T09:51:45.392Z,12.50
2019-05-02T09:52:48.054Z,12.40
2019-05-02T09:53:52.369Z,12.50
2019-05-02T09:54:56.095Z,12.50
2019-05-02T09:56:01.993Z,12.40
2019-05-02T09:57:04.922Z,12.30
2019-05-02T09:58:10.341Z,12.20
2019-05-02T09:59:26.787Z,12.00
2019-05-02T10:00:36.543Z,11.90
2019-05-02T10:01:42.153Z,11.80
2019-05-02T10:02:45.791Z,11.80
2019-05-02T10:03:49.433Z,11.80
2019-05-02T10:04:54.887Z,11.90
2019-05-02T10:05:58.411Z,12.00
2019-05-02T10:07:02.588Z,12.00
2019-05-02T10:08:09.090Z,12.00
2019-05-02T10:09:12.152Z,12.10
2019-05-02T10:10:16.127Z,12.20
2019-05-02T10:11:22.499Z,12.30
2019-05-02T10:12:24.934Z,12.40
2019-05-02T10:13:28.534Z,12.40
2019-05-02T10:14:33.027Z,12.60
2019-05-02T10:15:36.880Z,12.50
2019-05-02T10:16:42.498Z,12.60
2019-05-02T10:17:46.890Z,12.60
2019-05-02T10:18:52.295Z,12.70
2019-05-02T10:19:57.296Z,12.80
2019-05-02T10:21:02.818Z,12.70
2019-05-02T10:22:06.345Z,12.70
2019-05-02T10:23:11.986Z,12.80
2019-05-02T10:24:15.242Z,12.80
2019-05-02T10:25:18.878Z,12.80
2019-05-02T10:26:24.590Z,12.90
2019-05-02T10:27:28.047Z,13.00
2019-05-02T10:28:31.845Z,13.10
2019-05-02T10:29:35.418Z,13.20
2019-05-02T10:30:39.118Z,13.40
2019-05-02T10:31:42.906Z,13.60
2019-05-02T10:32:47.181Z,13.80
2019-05-02T10:33:52.906Z,14.00
2019-05-02T10:34:56.909Z,14.20
2019-05-02T10:36:02.548Z,14.30
2019-05-02T10:37:05.903Z,14.30
2019-05-02T10:38:14.315Z,14.40
2019-05-02T10:39:15.839Z,14.40
2019-05-02T10:40:19.538Z,14.30
2019-05-02T10:41:23.386Z,14.30
2019-05-02T10:42:26.951Z,14.20
2019-05-02T10:43:30.539Z,14.20
2019-05-02T10:44:36.650Z,14.30
2019-05-02T10:45:42.536Z,14.30
2019-05-02T10:46:47.974Z,14.30
2019-05-02T10:47:52.702Z,14.30
2019-05-02T10:48:57.942Z,14.30
2019-05-02T10:50:03.181Z,14.40
2019-05-02T10:51:26.445Z,14.40
2019-05-02T10:52:32.001Z,14.30
2019-05-02T10:53:35.234Z,14.10
2019-05-02T10:54:38.798Z,14.10
2019-05-02T10:55:42.660Z,13.90
2019-05-02T10:56:46.203Z,14.00
2019-05-02T10:57:49.775Z,14.10
2019-05-02T10:58:53.372Z,14.10
2019-05-02T10:59:56.939Z,14.10
2019-05-02T11:01:02.277Z,14.20
2019-05-02T11:02:12.780Z,14.20
2019-05-02T11:03:26.089Z,14.30
2019-05-02T11:04:29.875Z,14.40
2019-05-02T11:05:37.282Z,14.40
2019-05-02T11:06:42.665Z,14.40
2019-05-02T11:07:45.502Z,14.40
2019-05-02T11:08:49.079Z,14.50
2019-05-02T11:09:52.674Z,14.40
2019-05-02T11:10:56.228Z,14.40
2019-05-02T11:12:02.438Z,14.50
2019-05-02T11:13:07.713Z,14.40
2019-05-02T11:14:15.871Z,14.40
2019-05-02T11:15:37.518Z,14.40
2019-05-02T11:16:45.171Z,14.40
2019-05-02T11:17:49.472Z,14.30
2019-05-02T11:18:57.216Z,14.40
2019-05-02T11:20:02.422Z,14.30
2019-05-02T11:21:08.303Z,14.40
2019-05-02T11:22:12.135Z,14.40
2019-05-02T11:23:15.820Z,14.60
2019-05-02T11:24:19.374Z,14.70
2019-05-02T11:25:22.951Z,14.80
2019-05-02T11:26:26.558Z,14.80
2019-05-02T11:27:30.096Z,14.80
2019-05-02T11:28:33.698Z,14.80
2019-05-02T11:29:37.276Z,14.90
2019-05-02T11:30:41.976Z,15.10
2019-05-02T11:31:45.663Z,15.10
2019-05-02T11:32:49.237Z,15.10
2019-05-02T11:33:52.972Z,15.10
2019-05-02T11:34:56.481Z,15.10
2019-05-02T11:36:02.387Z,15.10
2019-05-02T11:37:05.410Z,15.10
2019-05-02T11:38:09.289Z,14.90
2019-05-02T11:39:19.860Z,14.90
2019-05-02T11:40:18.321Z,15.00
2019-05-02T11:41:22.420Z,15.10
2019-05-02T11:42:27.364Z,15.30
2019-05-02T11:43:32.598Z,15.30
2019-05-02T11:44:36.225Z,15.30
2019-05-02T11:45:39.829Z,15.50
2019-05-02T11:46:46.884Z,15.70
2019-05-02T11:47:48.610Z,15.80
2019-05-02T11:48:56.464Z,16.00
2019-05-02T11:49:57.391Z,16.20
2019-05-02T11:51:02.600Z,16.40
2019-05-02T11:52:06.357Z,16.50
2019-05-02T11:53:24.879Z,16.70
2019-05-02T11:54:15.209Z,16.80
2019-05-02T11:55:23.702Z,16.90
2019-05-02T11:56:24.405Z,17.00
2019-05-02T11:57:30.423Z,17.20
2019-05-02T11:58:33.191Z,17.50
2019-05-02T11:59:36.763Z,17.70
2019-05-02T12:00:45.347Z,17.60
2019-05-02T12:01:57.629Z,17.50
2019-05-02T12:02:57.954Z,17.50
2019-05-02T12:03:59.314Z,17.70
2019-05-02T12:05:03.266Z,17.70
2019-05-02T12:06:12.234Z,17.50
2019-05-02T12:07:12.739Z,17.40
2019-05-02T12:08:16.365Z,17.30
2019-05-02T12:09:22.209Z,17.50
2019-05-02T12:10:28.017Z,17.50
2019-05-02T12:11:32.375Z,17.60
2019-05-02T12:12:36.450Z,17.60
2019-05-02T12:13:40.083Z,17.80
2019-05-02T12:14:43.644Z,18.00
2019-05-02T12:15:47.214Z,18.10
2019-05-02T12:16:52.631Z,18.00
2019-05-02T12:17:56.048Z,18.10
2019-05-02T12:19:09.556Z,17.90
2019-05-02T12:20:06.218Z,17.80
2019-05-02T12:21:11.819Z,17.50
2019-05-02T12:23:18.003Z,17.30
2019-05-02T12:23:22.472Z,17.40
2019-05-02T12:24:25.616Z,17.50
2019-05-02T12:25:29.250Z,17.60
2019-05-02T12:26:32.841Z,17.80
2019-05-02T12:27:36.413Z,18.10
2019-05-02T12:28:40.023Z,18.10
2019-05-02T12:29:43.605Z,18.00
2019-05-02T12:30:47.178Z,18.00
2019-05-02T12:31:54.752Z,18.30
2019-05-02T12:32:56.013Z,18.20
2019-05-02T12:34:02.499Z,18.10
2019-05-02T12:35:06.021Z,18.20
2019-05-02T12:36:11.979Z,18.10
2019-05-02T12:37:15.649Z,18.20
2019-05-02T12:38:19.265Z,18.20
2019-05-02T12:39:22.875Z,18.30
2019-05-02T12:40:26.518Z,18.20
2019-05-02T12:41:30.103Z,18.30
2019-05-02T12:42:34.055Z,18.60
2019-05-02T12:43:37.885Z,18.70
2019-05-02T12:44:42.641Z,18.60
2019-05-02T12:45:46.337Z,18.40
2019-05-02T12:46:51.622Z,18.30
2019-05-02T12:47:55.126Z,18.10
2019-05-02T12:48:58.695Z,18.00
2019-05-02T12:50:03.126Z,17.90
2019-05-02T12:51:06.949Z,17.90
2019-05-02T12:52:12.802Z,18.10
2019-05-02T12:53:15.867Z,18.10
2019-05-02T12:54:19.440Z,18.30
2019-05-02T12:55:23.014Z,18.50
2019-05-02T12:56:26.621Z,18.50
2019-05-02T12:57:32.009Z,18.60
2019-05-02T12:58:35.462Z,18.60
2019-05-02T12:59:39.039Z,18.60
2019-05-02T13:00:43.202Z,18.60
2019-05-02T13:01:46.888Z,18.40
2019-05-02T13:03:02.030Z,18.30
2019-05-02T13:04:07.581Z,18.30
2019-05-02T13:05:13.111Z,18.20
2019-05-02T13:06:16.503Z,18.10
2019-05-02T13:07:20.067Z,17.80
2019-05-02T13:08:25.297Z,17.70
2019-05-02T13:09:29.069Z,17.60
2019-05-02T13:10:49.293Z,17.40
2019-05-02T13:12:00.128Z,17.30
2019-05-02T13:13:05.644Z,17.20
2019-05-02T13:14:16.971Z,17.10
2019-05-02T13:15:15.292Z,17.20
2019-05-02T13:16:18.806Z,17.30
2019-05-02T13:17:22.753Z,17.50
2019-05-02T13:18:29.268Z,17.60
2019-05-02T13:19:40.593Z,17.70
2019-05-02T13:20:38.386Z,17.80
2019-05-02T13:21:57.972Z,18.00
2019-05-02T13:23:01.539Z,18.30
2019-05-02T13:24:13.265Z,18.50
2019-05-02T13:25:16.758Z,18.60
2019-05-02T13:26:24.966Z,18.70
2019-05-02T13:27:25.653Z,18.80
2019-05-02T13:28:29.226Z,19.00
2019-05-02T13:29:32.806Z,18.80
2019-05-02T13:30:46.567Z,18.70
2019-05-02T13:31:59.162Z,18.80
2019-05-02T13:33:04.378Z,19.10
2019-05-02T13:34:13.304Z,19.10
2019-05-02T13:35:26.503Z,19.30
2019-05-02T13:36:42.297Z,19.50
2019-05-02T13:37:47.245Z,19.70
2019-05-02T13:38:51.876Z,19.70
2019-05-02T13:39:57.238Z,19.80
2019-05-02T13:41:02.586Z,19.70
2019-05-02T13:42:06.329Z,19.50
2019-05-02T13:43:09.895Z,19.40
2019-05-02T13:44:15.259Z,19.40
2019-05-02T13:45:26.158Z,19.50
2019-05-02T13:46:29.802Z,19.40
2019-05-02T13:47:33.519Z,19.40
2019-05-02T13:48:37.125Z,19.30
2019-05-02T13:49:51.460Z,19.20
2019-05-02T13:50:46.048Z,19.30
2019-05-02T13:51:51.963Z,19.40
2019-05-02T13:52:57.902Z,19.40
2019-05-02T13:54:02.378Z,19.10
2019-05-02T13:55:09.179Z,19.10
2019-05-02T13:56:23.492Z,19.10
2019-05-02T13:57:27.125Z,19.10
2019-05-02T13:58:33.174Z,18.70
2019-05-02T13:59:35.966Z,18.80
2019-05-02T14:00:44.807Z,18.60
2019-05-02T14:01:51.919Z,18.50